メインページ
METAR-TAF:

METAR-TAF

空港 :

ベルリン・テーゲル空港

ベルリン, ドイツ

緯度: 52-34N, 経度: 013-19E, 海抜: 37m

現時点の気象観測

当レポートは16分前の07:20(UTC)に作成
変向風 2kt
気温 21°C
湿度 56%
気圧 1021 hPa
視程10km以上
高度4800ftの雲はほとんどない
高度25000ftの千切れ雲あり

METAR: EDDT 190720Z VRB02KT 9999 FEW048 BKN250 21/12 Q1021 NOSIG

時間: 09:36 (07:36 UTC)

予報

当レポートは2時間36分前の05:00(UTC)に作成
予報は19日の 06時(UTC)から 20日の 06時(UTC)まで有効
西の風 5kt
視程10km以上
1,500メートル以下は雲なし、積乱雲なし
19日の 17時(UTC)から 19日の 19時(UTC)まで徐々に
変向風 3kt

TAF: EDDT 190500Z 1906/2006 26005KT CAVOK BECMG 1917/1919 VRB03KT

4,000以上の空港の気象観測と天気予報(METAR報とTAF報)

利用可能な観測所は地図上に黄色い丸と赤い丸で示す。

丸の上にカーソルを重ねると観測所名を参照できる。

次にクリックすると気象観測と天気予報を参照できる。

マップの切り替え:黒色「×」印の緑ボタンをクリックして拡大、「-」印の緑ボタンをクリックして縮小、緑色の三角印をクリックして隣りの地図に切り替え


METAR-TAF: